Time;durP1;ratioP1;P1;durP2;ratioP2;P2;SDS_P1;SDS_P2;PMS_P1;PMS_P2;Temp;Humidity;BMP_temperature;BMP_pressure;BME280_temperature;BME280_humidity;BME280_pressure;Samples;Min_cycle;Max_cycle;Signal;HPM_P1;HPM_P2
2022/05/23 00:01:56;;;;;;;14.00;9.02;;;18.00;99.90;;;;;;5056708;28;25089;-60
2022/05/23 00:04:22;;;;;;;13.15;8.52;;;17.90;99.90;;;;;;5057674;28;25169;-59
2022/05/23 00:06:49;;;;;;;18.08;10.20;;;17.80;99.90;;;;;;5054770;28;25054;-60
2022/05/23 00:09:15;;;;;;;14.45;9.02;;;17.80;99.90;;;;;;5062419;28;25058;-60
2022/05/23 00:11:41;;;;;;;15.45;9.68;;;17.80;99.90;;;;;;5059725;28;25053;-59
2022/05/23 00:14:06;;;;;;;13.27;9.02;;;17.80;99.90;;;;;;5059859;28;25085;-60
2022/05/23 00:16:40;;;;;;;18.63;9.07;;;17.80;99.90;;;;;;5057503;28;25111;-61
2022/05/23 00:19:06;;;;;;;13.95;8.55;;;17.80;99.90;;;;;;5057459;28;25147;-60
2022/05/23 00:21:31;;;;;;;14.68;9.25;;;17.80;99.90;;;;;;5056811;28;25080;-60
2022/05/23 00:23:57;;;;;;;15.70;9.32;;;17.80;99.90;;;;;;5057220;28;25085;-60
2022/05/23 00:26:23;;;;;;;18.15;9.43;;;17.80;99.90;;;;;;5055242;28;25070;-59
2022/05/23 00:28:49;;;;;;;14.32;9.30;;;17.70;99.90;;;;;;5056371;28;25078;-62
2022/05/23 00:31:15;;;;;;;13.07;9.32;;;17.70;99.90;;;;;;5057888;28;25175;-61
2022/05/23 00:36:27;;;;;;;16.92;10.63;;;17.50;99.90;;;;;;5055844;28;25053;-60
2022/05/23 00:38:55;;;;;;;13.48;9.02;;;17.50;99.90;;;;;;5056364;28;25143;-59
2022/05/23 00:44:21;;;;;;;13.73;9.00;;;17.40;99.90;;;;;;5055914;28;25173;-59
2022/05/23 00:46:52;;;;;;;11.40;9.48;;;17.30;99.90;;;;;;5052692;28;25107;-60
2022/05/23 00:49:28;;;;;;;14.93;9.82;;;17.30;99.90;;;;;;5053530;28;25073;-60
2022/05/23 00:51:56;;;;;;;14.35;9.05;;;17.30;99.90;;;;;;5056058;28;25068;-60
2022/05/23 00:54:23;;;;;;;17.63;9.75;;;17.20;99.90;;;;;;5055617;28;25077;-59
2022/05/23 00:56:50;;;;;;;12.43;8.73;;;17.30;99.90;;;;;;5054151;28;25204;-60
2022/05/23 00:59:25;;;;;;;17.73;8.77;;;17.30;99.90;;;;;;5054913;28;25085;-60
2022/05/23 01:01:51;;;;;;;21.02;10.30;;;17.30;99.90;;;;;;5053545;28;25073;-60
2022/05/23 01:04:17;;;;;;;13.32;8.95;;;17.20;99.90;;;;;;5056091;28;25061;-60
2022/05/23 01:06:43;;;;;;;15.15;9.23;;;17.20;99.90;;;;;;5055651;28;25077;-59
2022/05/23 01:09:10;;;;;;;15.30;9.60;;;17.20;99.90;;;;;;5052840;28;25078;-60
2022/05/23 01:11:37;;;;;;;14.77;9.88;;;17.20;99.90;;;;;;5055756;28;25143;-60
2022/05/23 01:14:03;;;;;;;19.73;10.20;;;17.10;99.90;;;;;;5054878;28;25058;-60
2022/05/23 01:16:28;;;;;;;15.32;9.18;;;17.10;99.90;;;;;;5055798;28;25056;-60
2022/05/23 01:18:54;;;;;;;15.63;9.07;;;17.10;99.90;;;;;;5054100;28;25129;-59
2022/05/23 01:21:53;;;;;;;18.65;9.70;;;17.10;99.90;;;;;;5055344;28;25064;-60
2022/05/23 01:24:18;;;;;;;17.13;10.15;;;17.00;99.90;;;;;;5054966;28;25077;-61
2022/05/23 01:26:44;;;;;;;12.48;9.10;;;17.10;99.90;;;;;;5061722;28;25092;-61
2022/05/23 01:29:14;;;;;;;12.20;9.57;;;17.10;99.90;;;;;;5064116;28;25084;-59
2022/05/23 01:31:40;;;;;;;14.70;9.27;;;17.20;99.90;;;;;;5055115;28;25150;-59
2022/05/23 01:34:06;;;;;;;17.77;10.80;;;17.20;99.90;;;;;;5054536;28;25121;-61
2022/05/23 01:36:32;;;;;;;20.90;11.00;;;17.10;99.90;;;;;;5053470;28;25078;-60
2022/05/23 01:38:58;;;;;;;13.73;9.73;;;17.10;99.90;;;;;;5053912;28;25084;-60
2022/05/23 01:41:24;;;;;;;18.83;9.25;;;17.10;99.90;;;;;;5054598;28;25150;-60
2022/05/23 01:43:49;;;;;;;12.63;10.30;;;17.10;99.90;;;;;;5055632;28;25175;-61
2022/05/23 01:46:15;;;;;;;15.50;9.80;;;17.10;99.90;;;;;;5055633;28;25109;-59
2022/05/23 01:48:40;;;;;;;16.25;10.02;;;17.10;99.90;;;;;;5053884;28;25062;-59
2022/05/23 01:51:06;;;;;;;18.52;10.05;;;17.10;99.90;;;;;;5054559;28;25085;-60
2022/05/23 01:53:31;;;;;;;12.15;9.77;;;17.10;99.90;;;;;;5054148;28;25057;-60
2022/05/23 01:55:58;;;;;;;16.02;9.75;;;17.00;99.90;;;;;;5054658;28;25128;-60
2022/05/23 02:01:14;;;;;;;12.55;10.02;;;17.10;99.90;;;;;;5055849;28;25116;-59
2022/05/23 02:03:42;;;;;;;16.73;11.13;;;17.10;99.90;;;;;;5053197;28;25101;-59
2022/05/23 02:06:07;;;;;;;19.73;10.93;;;17.10;99.90;;;;;;5054573;28;25055;-61
2022/05/23 02:08:33;;;;;;;16.23;10.52;;;17.10;99.90;;;;;;5053836;28;25010;-61
2022/05/23 02:10:58;;;;;;;16.80;11.05;;;17.10;99.90;;;;;;5054954;28;25139;-61
2022/05/23 02:13:24;;;;;;;15.25;10.50;;;17.10;99.90;;;;;;5054275;28;25077;-60
2022/05/23 02:15:50;;;;;;;20.33;10.60;;;17.00;99.90;;;;;;5054590;28;25072;-60
2022/05/23 02:18:15;;;;;;;15.48;11.10;;;17.00;99.90;;;;;;5053555;28;25098;-59
2022/05/23 02:20:41;;;;;;;22.08;12.30;;;17.00;99.90;;;;;;5054737;28;25149;-60
2022/05/23 02:23:07;;;;;;;18.20;10.98;;;17.10;99.90;;;;;;5054230;28;25138;-61
2022/05/23 02:25:32;;;;;;;17.02;10.98;;;17.10;99.90;;;;;;5053774;28;25223;-60
2022/05/23 02:27:58;;;;;;;15.57;10.35;;;17.10;99.90;;;;;;5055397;28;25079;-59
2022/05/23 02:30:24;;;;;;;16.30;11.02;;;17.00;99.90;;;;;;5055356;28;25089;-61
2022/05/23 02:32:50;;;;;;;16.60;10.57;;;16.90;99.90;;;;;;5054322;28;25087;-60
2022/05/23 02:35:17;;;;;;;18.60;11.07;;;16.90;99.90;;;;;;5058643;28;25087;-60
2022/05/23 02:37:43;;;;;;;18.02;10.85;;;16.90;99.90;;;;;;5059371;28;25141;-60
2022/05/23 02:40:10;;;;;;;13.27;10.13;;;16.90;99.90;;;;;;5058480;28;25154;-61
2022/05/23 02:42:36;;;;;;;15.65;10.95;;;17.00;99.90;;;;;;5058559;28;25080;-61
2022/05/23 02:45:02;;;;;;;24.33;10.55;;;16.90;99.90;;;;;;5059250;28;25148;-61
2022/05/23 02:47:28;;;;;;;18.33;10.43;;;17.00;99.90;;;;;;5056883;28;25151;-60
2022/05/23 02:49:54;;;;;;;17.02;11.23;;;16.90;99.90;;;;;;5058242;28;25167;-60
2022/05/23 02:52:20;;;;;;;15.45;10.43;;;16.90;99.90;;;;;;5056757;28;25149;-61
2022/05/23 02:54:45;;;;;;;17.80;11.48;;;16.90;99.90;;;;;;5056906;28;24478;-60
2022/05/23 02:57:11;;;;;;;19.95;11.30;;;16.80;99.90;;;;;;5057741;28;25080;-60
2022/05/23 02:59:36;;;;;;;21.10;11.23;;;16.70;99.90;;;;;;5058190;28;25134;-60
2022/05/23 03:04:47;;;;;;;14.77;10.80;;;16.80;99.90;;;;;;5055748;28;25099;-60
2022/05/23 03:07:12;;;;;;;18.60;10.07;;;16.80;99.90;;;;;;5057347;28;25172;-61
2022/05/23 03:09:38;;;;;;;17.65;11.85;;;16.80;99.90;;;;;;5057530;28;25084;-60
2022/05/23 03:12:04;;;;;;;19.20;10.43;;;16.80;99.90;;;;;;5056252;28;25069;-60
2022/05/23 03:14:29;;;;;;;14.20;10.45;;;16.80;99.90;;;;;;5056846;28;25153;-60
2022/05/23 03:17:03;;;;;;;19.17;11.05;;;16.90;99.90;;;;;;5058359;28;25115;-59
2022/05/23 03:19:29;;;;;;;14.57;10.98;;;16.90;99.90;;;;;;5053767;28;25144;-59
2022/05/23 03:27:24;;;;;;;14.48;10.63;;;16.90;99.90;;;;;;5058035;28;25067;-60
2022/05/23 03:29:51;;;;;;;17.50;10.52;;;16.80;99.90;;;;;;5057861;28;25128;-60
2022/05/23 03:32:17;;;;;;;25.08;12.20;;;16.80;99.90;;;;;;5057881;28;25101;-60
2022/05/23 03:34:42;;;;;;;14.40;10.63;;;16.70;99.90;;;;;;5056422;28;25148;-60
2022/05/23 03:37:08;;;;;;;19.40;10.23;;;16.70;99.90;;;;;;5056749;28;25058;-60
2022/05/23 03:39:36;;;;;;;17.33;10.48;;;16.60;99.90;;;;;;5056965;28;25049;-59
2022/05/23 03:42:02;;;;;;;15.20;9.85;;;16.60;99.90;;;;;;5057020;28;25076;-60
2022/05/23 03:44:28;;;;;;;14.85;10.27;;;16.60;99.90;;;;;;5057374;28;25126;-59
2022/05/23 03:46:54;;;;;;;21.38;10.40;;;16.70;99.90;;;;;;5055656;28;24845;-60
2022/05/23 03:49:19;;;;;;;14.60;10.48;;;16.60;99.90;;;;;;5055701;28;25147;-60
2022/05/23 03:51:45;;;;;;;17.65;10.25;;;16.60;99.90;;;;;;5058860;28;25176;-61
2022/05/23 03:54:10;;;;;;;15.80;9.18;;;16.60;99.90;;;;;;5058905;28;25189;-60
2022/05/23 03:56:36;;;;;;;16.48;11.00;;;16.60;99.90;;;;;;5056582;28;25090;-59
2022/05/23 03:59:02;;;;;;;19.98;10.57;;;16.50;99.90;;;;;;5056201;28;25091;-60
2022/05/23 04:01:30;;;;;;;20.80;11.00;;;16.40;99.90;;;;;;5056701;28;25064;-61
2022/05/23 04:03:56;;;;;;;15.20;9.88;;;16.30;99.90;;;;;;5054606;28;25062;-60
2022/05/23 04:06:21;;;;;;;18.80;10.27;;;16.30;99.90;;;;;;5054973;28;25070;-60
2022/05/23 04:08:47;;;;;;;13.35;9.60;;;16.30;99.90;;;;;;5056203;28;25102;-61
2022/05/23 04:11:12;;;;;;;13.07;9.43;;;16.40;99.90;;;;;;5055694;28;25103;-61
2022/05/23 04:13:38;;;;;;;13.57;9.02;;;16.50;99.90;;;;;;5056486;28;25095;-60
2022/05/23 04:16:04;;;;;;;11.85;9.57;;;16.50;99.90;;;;;;5055787;28;25064;-59
2022/05/23 04:18:31;;;;;;;14.60;9.23;;;16.50;99.90;;;;;;5055938;28;25083;-60
2022/05/23 04:21:01;;;;;;;13.82;8.70;;;16.50;99.90;;;;;;5051328;28;25061;-60
2022/05/23 04:23:27;;;;;;;18.90;10.07;;;16.50;99.90;;;;;;5052620;28;25110;-59
2022/05/23 04:25:53;;;;;;;11.43;9.50;;;16.50;99.90;;;;;;5053548;28;25077;-59
2022/05/23 04:28:19;;;;;;;21.17;9.82;;;16.60;99.90;;;;;;5054589;28;25054;-61
2022/05/23 04:30:45;;;;;;;17.25;9.40;;;16.50;99.90;;;;;;5054835;28;25153;-60
2022/05/23 04:35:58;;;;;;;15.27;9.40;;;16.50;99.90;;;;;;5057319;28;25140;-60
2022/05/23 04:38:24;;;;;;;19.02;9.60;;;16.50;99.90;;;;;;5056584;28;25129;-59
2022/05/23 04:40:49;;;;;;;17.90;8.73;;;16.60;99.90;;;;;;5057034;28;25137;-60
2022/05/23 04:43:15;;;;;;;17.15;9.52;;;16.60;99.90;;;;;;5054790;28;25116;-60
2022/05/23 04:45:42;;;;;;;16.55;9.63;;;16.60;99.90;;;;;;5052864;28;25061;-60
2022/05/23 04:50:51;;;;;;;13.40;9.05;;;16.70;99.90;;;;;;5055352;28;25114;-60
2022/05/23 04:53:17;;;;;;;15.00;8.77;;;16.70;99.90;;;;;;5053375;28;25153;-60
2022/05/23 04:55:43;;;;;;;14.23;9.50;;;16.60;99.90;;;;;;5054879;28;25063;-60
2022/05/23 04:58:13;;;;;;;15.38;9.05;;;16.70;99.90;;;;;;5058559;28;25053;-60
2022/05/23 05:00:40;;;;;;;13.68;8.45;;;16.70;99.90;;;;;;5055983;28;25060;-60
2022/05/23 05:03:06;;;;;;;14.85;9.02;;;16.70;99.90;;;;;;5055074;28;25095;-61
2022/05/23 05:05:33;;;;;;;15.40;9.02;;;16.60;99.90;;;;;;5054631;28;25079;-60
2022/05/23 05:08:00;;;;;;;16.02;8.57;;;16.70;99.90;;;;;;5054412;28;25058;-59
2022/05/23 05:10:26;;;;;;;15.25;8.80;;;16.60;99.90;;;;;;5054731;28;25135;-60
2022/05/23 05:12:53;;;;;;;13.23;8.80;;;16.60;99.90;;;;;;5053068;28;25060;-60
2022/05/23 05:15:19;;;;;;;13.90;8.38;;;16.70;99.90;;;;;;5054370;28;25150;-60
2022/05/23 05:17:45;;;;;;;15.93;8.73;;;16.60;99.90;;;;;;5054858;28;25075;-60
2022/05/23 05:20:13;;;;;;;15.93;8.75;;;16.60;99.90;;;;;;5054601;28;25132;-60
2022/05/23 05:22:39;;;;;;;16.70;8.90;;;16.70;99.90;;;;;;5050912;28;25060;-60
2022/05/23 05:25:06;;;;;;;13.25;8.40;;;16.80;99.90;;;;;;5052872;28;25059;-60
2022/05/23 05:27:32;;;;;;;14.50;8.63;;;16.90;99.90;;;;;;5051792;28;25144;-59
2022/05/23 05:29:59;;;;;;;13.18;8.82;;;17.00;99.90;;;;;;5054025;28;25108;-60
2022/05/23 05:32:40;;;;;;;14.35;8.25;;;17.10;99.90;;;;;;5052405;28;25055;-60
2022/05/23 05:35:07;;;;;;;15.70;9.63;;;17.10;99.90;;;;;;5053211;28;25059;-59
2022/05/23 05:37:44;;;;;;;13.43;8.77;;;17.20;99.90;;;;;;5054590;28;25072;-59
2022/05/23 05:40:10;;;;;;;20.40;9.65;;;17.20;99.90;;;;;;5054992;28;25093;-59
2022/05/23 05:42:40;;;;;;;13.18;9.30;;;17.20;99.90;;;;;;5053952;28;25053;-59
2022/05/23 05:45:12;;;;;;;13.82;9.05;;;17.20;99.90;;;;;;5054203;28;25109;-60
2022/05/23 05:47:42;;;;;;;14.73;9.88;;;17.10;99.90;;;;;;5054392;28;25058;-60
2022/05/23 05:50:26;;;;;;;15.65;9.55;;;17.00;99.90;;;;;;5053621;28;25058;-61
2022/05/23 05:52:54;;;;;;;16.63;9.48;;;17.00;99.90;;;;;;5054626;28;25072;-59
2022/05/23 05:55:20;;;;;;;19.70;10.27;;;17.10;99.90;;;;;;5054351;28;25077;-59
2022/05/23 05:57:45;;;;;;;21.73;11.95;;;17.10;99.90;;;;;;5053330;28;25067;-60
2022/05/23 06:00:11;;;;;;;17.10;10.13;;;17.10;99.90;;;;;;5052883;28;25132;-61
2022/05/23 06:02:37;;;;;;;19.95;10.27;;;17.10;99.90;;;;;;5053965;28;25056;-59
2022/05/23 06:05:03;;;;;;;13.85;9.93;;;17.00;99.90;;;;;;5056387;28;25077;-60
2022/05/23 06:12:57;;;;;;;13.77;10.20;;;17.10;99.90;;;;;;5059928;28;25059;-59
2022/05/23 06:15:23;;;;;;;16.83;10.20;;;17.10;99.90;;;;;;5057994;28;25061;-60
2022/05/23 06:17:51;;;;;;;15.82;10.43;;;17.10;99.90;;;;;;5055836;28;25131;-59
2022/05/23 06:20:17;;;;;;;20.52;10.68;;;17.20;99.90;;;;;;5055523;28;25168;-61
2022/05/23 06:22:43;;;;;;;16.48;10.98;;;17.20;99.90;;;;;;5056935;28;25071;-60
2022/05/23 06:25:10;;;;;;;16.00;10.25;;;17.30;99.90;;;;;;5056375;28;25132;-60
2022/05/23 06:27:36;;;;;;;19.17;11.07;;;17.30;99.90;;;;;;5055906;28;25149;-59
2022/05/23 06:30:04;;;;;;;13.27;9.55;;;17.40;99.90;;;;;;5056220;28;25045;-59
2022/05/23 06:32:30;;;;;;;18.33;10.30;;;17.50;99.90;;;;;;5056467;28;25048;-59
2022/05/23 06:34:56;;;;;;;18.30;10.57;;;17.60;99.90;;;;;;5053583;28;25074;-59
2022/05/23 06:37:23;;;;;;;17.02;10.90;;;17.60;99.90;;;;;;5054921;28;25070;-60
2022/05/23 06:39:49;;;;;;;17.40;10.65;;;17.70;99.90;;;;;;5055918;28;25144;-60
2022/05/23 06:42:15;;;;;;;15.20;10.05;;;17.80;99.90;;;;;;5057357;28;25062;-60
2022/05/23 06:44:40;;;;;;;17.15;10.75;;;17.80;99.90;;;;;;5055967;28;25050;-59
2022/05/23 06:47:06;;;;;;;17.13;11.18;;;17.90;99.90;;;;;;5058866;28;25085;-60
2022/05/23 06:49:32;;;;;;;29.80;12.32;;;18.00;99.90;;;;;;5057482;28;25121;-60
2022/05/23 06:51:57;;;;;;;14.00;11.32;;;18.00;99.90;;;;;;5057578;28;25065;-60
2022/05/23 06:54:23;;;;;;;19.40;12.13;;;18.10;99.90;;;;;;5058352;28;25079;-60
2022/05/23 06:56:49;;;;;;;19.33;11.65;;;18.10;99.90;;;;;;5057479;28;25061;-60
2022/05/23 06:59:17;;;;;;;14.85;11.30;;;18.30;99.90;;;;;;5055140;28;25162;-60
2022/05/23 07:01:43;;;;;;;18.35;11.30;;;18.60;99.90;;;;;;5057780;28;25089;-61
2022/05/23 07:04:08;;;;;;;19.38;11.32;;;18.60;99.90;;;;;;5056811;28;25085;-59
2022/05/23 07:14:48;;;;;;;22.33;11.43;;;19.70;99.90;;;;;;5055781;28;25082;-60
2022/05/23 07:17:14;;;;;;;17.73;11.32;;;19.50;99.90;;;;;;5057407;28;25080;-60
2022/05/23 07:19:39;;;;;;;15.18;10.20;;;19.50;99.90;;;;;;5052831;28;25080;-61
2022/05/23 07:22:05;;;;;;;13.05;10.52;;;19.80;99.90;;;;;;5052113;28;25110;-60
2022/05/23 07:24:31;;;;;;;14.02;9.15;;;20.10;99.90;;;;;;5053046;28;25056;-60
2022/05/23 07:26:58;;;;;;;15.73;9.50;;;20.50;99.90;;;;;;5056076;28;25043;-60
2022/05/23 07:29:24;;;;;;;16.63;10.30;;;20.90;99.90;;;;;;5056932;28;25088;-61
2022/05/23 07:31:51;;;;;;;15.13;9.05;;;21.10;99.90;;;;;;5055996;28;25094;-61
2022/05/23 07:34:17;;;;;;;12.80;9.50;;;21.40;99.90;;;;;;5056923;28;25110;-60
2022/05/23 07:36:44;;;;;;;15.70;9.73;;;21.20;99.90;;;;;;5057329;28;25081;-60
2022/05/23 07:39:11;;;;;;;14.57;8.70;;;21.60;99.90;;;;;;5057121;28;25095;-60
2022/05/23 07:41:39;;;;;;;14.30;9.93;;;21.80;99.90;;;;;;5056606;28;25152;-60
2022/05/23 07:44:05;;;;;;;16.08;9.93;;;21.90;99.90;;;;;;5052385;28;25103;-61
2022/05/23 07:46:31;;;;;;;12.82;9.43;;;21.70;99.90;;;;;;5057205;28;24873;-60
2022/05/23 07:48:56;;;;;;;14.13;9.10;;;21.60;99.90;;;;;;5056886;28;25138;-59
2022/05/23 07:51:29;;;;;;;15.30;10.20;;;21.70;99.90;;;;;;5056110;28;25052;-60
2022/05/23 08:02:10;;;;;;;14.43;10.45;;;21.20;99.90;;;;;;5057800;28;25078;-60
2022/05/23 08:04:36;;;;;;;14.57;10.52;;;20.90;99.90;;;;;;5056255;28;25082;-60
2022/05/23 08:07:02;;;;;;;18.58;10.90;;;20.50;99.90;;;;;;5056731;28;25117;-59
2022/05/23 08:09:27;;;;;;;15.20;10.60;;;20.40;99.90;;;;;;5056231;28;25135;-60
2022/05/23 08:11:53;;;;;;;16.23;10.80;;;20.50;99.90;;;;;;5054717;28;25134;-60
2022/05/23 08:14:19;;;;;;;17.52;10.43;;;20.50;99.90;;;;;;5056554;28;25086;-61
2022/05/23 08:16:45;;;;;;;14.48;10.73;;;20.50;99.90;;;;;;5056452;28;25142;-60
2022/05/23 08:19:11;;;;;;;15.38;11.00;;;20.30;99.90;;;;;;5055604;28;25083;-60
2022/05/23 08:21:42;;;;;;;20.33;11.05;;;20.40;99.90;;;;;;5056080;28;25135;-60
2022/05/23 08:24:08;;;;;;;15.73;11.18;;;20.40;99.90;;;;;;5055674;28;25163;-59
2022/05/23 08:26:33;;;;;;;20.00;10.55;;;20.40;99.90;;;;;;5054200;28;25087;-61
2022/05/23 08:28:59;;;;;;;17.15;10.43;;;20.50;99.90;;;;;;5055186;28;25115;-61
2022/05/23 08:31:24;;;;;;;16.45;11.43;;;20.60;99.90;;;;;;5055839;28;25164;-59
2022/05/23 08:33:50;;;;;;;16.05;11.02;;;20.70;99.90;;;;;;5054425;28;25058;-60
2022/05/23 08:36:16;;;;;;;18.60;12.13;;;20.70;99.90;;;;;;5056055;28;25072;-59
2022/05/23 08:38:42;;;;;;;18.15;12.05;;;20.70;99.90;;;;;;5055456;28;25118;-60
2022/05/23 08:41:24;;;;;;;16.50;12.00;;;20.70;99.90;;;;;;5055322;28;25066;-60
2022/05/23 08:44:08;;;;;;;18.40;10.93;;;20.70;99.90;;;;;;5054576;28;25067;-59
2022/05/23 08:46:54;;;;;;;21.73;11.77;;;20.70;99.90;;;;;;5056753;28;25049;-59
2022/05/23 08:49:36;;;;;;;15.20;12.20;;;20.70;99.90;;;;;;5055542;28;25063;-60
2022/05/23 08:52:31;;;;;;;17.10;11.77;;;20.90;99.90;;;;;;5056227;28;25131;-59
2022/05/23 08:55:14;;;;;;;18.10;13.38;;;21.00;99.90;;;;;;5055956;28;25072;-60
2022/05/23 08:58:00;;;;;;;17.35;12.45;;;20.70;99.90;;;;;;5056066;28;25134;-60
2022/05/23 09:00:38;;;;;;;21.02;12.43;;;20.60;99.90;;;;;;5055134;28;25076;-61
2022/05/23 09:03:21;;;;;;;19.80;13.57;;;20.60;99.90;;;;;;5056548;28;25187;-60
2022/05/23 09:05:50;;;;;;;;;;;20.30;99.90;;;;;;5057461;28;25112;-59
2022/05/23 09:08:21;;;;;;;29.52;14.25;;;20.00;99.90;;;;;;5055118;28;25070;-59
2022/05/23 09:10:59;;;;;;;25.50;14.05;;;20.10;99.90;;;;;;5053393;28;25103;-60
2022/05/23 09:13:30;;;;;;;17.13;12.18;;;20.30;99.90;;;;;;5053597;28;25149;-60
2022/05/23 09:16:03;;;;;;;18.63;13.38;;;20.50;99.90;;;;;;5051363;28;25068;-60
2022/05/23 09:18:42;;;;;;;15.98;14.30;;;20.20;99.90;;;;;;5049397;28;25070;-60
2022/05/23 09:21:09;;;;;;;20.85;13.50;;;20.00;99.90;;;;;;5051008;28;25076;-60
2022/05/23 09:23:47;;;;;;;21.38;13.98;;;19.80;99.90;;;;;;5053330;28;25061;-60
2022/05/23 09:26:27;;;;;;;18.40;14.00;;;19.90;99.90;;;;;;5053659;28;25107;-61
2022/05/23 09:28:53;;;;;;;22.33;14.55;;;19.80;99.90;;;;;;5054881;28;25081;-60
2022/05/23 09:31:25;;;;;;;20.88;15.48;;;19.70;99.90;;;;;;5052721;28;25072;-59
2022/05/23 09:33:53;;;;;;;21.00;13.35;;;19.70;99.90;;;;;;5052616;28;25060;-59
2022/05/23 09:36:23;;;;;;;24.05;13.23;;;19.80;99.90;;;;;;5052722;28;25078;-60
2022/05/23 09:38:51;;;;;;;20.08;13.65;;;19.90;99.90;;;;;;5050273;28;25114;-59
2022/05/23 09:49:55;;;;;;;18.13;15.25;;;20.00;99.90;;;;;;5055785;28;25107;-60
2022/05/23 09:52:39;;;;;;;21.50;14.88;;;20.10;99.90;;;;;;5055058;28;25068;-60
2022/05/23 09:55:07;;;;;;;18.77;14.90;;;20.10;99.90;;;;;;5054740;28;25064;-60
2022/05/23 09:57:50;;;;;;;19.45;14.65;;;20.30;99.90;;;;;;5054262;28;25069;-60
2022/05/23 10:00:21;;;;;;;20.90;14.27;;;20.30;99.90;;;;;;5052696;28;25144;-60
2022/05/23 10:03:01;;;;;;;27.38;15.77;;;20.60;99.90;;;;;;5053516;28;25065;-60
2022/05/23 10:05:36;;;;;;;19.45;14.10;;;20.80;99.90;;;;;;5054045;28;25093;-60
2022/05/23 10:08:05;;;;;;;20.63;14.13;;;20.50;99.90;;;;;;5053675;28;25156;-60
2022/05/23 10:10:38;;;;;;;20.42;13.65;;;20.60;99.90;;;;;;5052801;28;25136;-60
2022/05/23 10:13:29;;;;;;;16.83;12.70;;;20.70;99.90;;;;;;5051320;28;25081;-60
2022/05/23 10:16:01;;;;;;;19.63;13.68;;;21.00;99.90;;;;;;5047169;28;25080;-60
2022/05/23 10:18:33;;;;;;;14.87;12.13;;;21.10;99.90;;;;;;5051358;28;25061;-61
2022/05/23 10:21:01;;;;;;;18.80;11.75;;;21.10;99.90;;;;;;5052240;28;25172;-59
2022/05/23 10:23:30;;;;;;;14.13;11.20;;;21.10;99.90;;;;;;5051180;28;25142;-60
2022/05/23 10:26:23;;;;;;;15.85;10.68;;;21.70;99.90;;;;;;5050729;28;25071;-59
2022/05/23 10:28:55;;;;;;;13.93;10.43;;;21.90;99.90;;;;;;5054139;28;25064;-59
2022/05/23 10:32:01;;;;;;;18.20;11.63;;;22.20;99.90;;;;;;5054840;28;25127;-60
2022/05/23 10:34:43;;;;;;;19.98;11.82;;;22.40;99.90;;;;;;5052937;28;25084;-60
2022/05/23 10:37:16;;;;;;;13.57;10.20;;;22.30;99.90;;;;;;5054966;28;25141;-60
2022/05/23 10:42:47;;;;;;;14.07;9.85;;;22.10;99.90;;;;;;5053100;28;25055;-60
2022/05/23 10:45:18;;;;;;;10.75;8.50;;;22.50;99.90;;;;;;5052778;28;25066;-59
2022/05/23 10:48:20;;;;;;;12.10;8.45;;;23.00;99.90;;;;;;5053820;28;25072;-60
2022/05/23 10:51:14;;;;;;;10.75;7.65;;;23.10;99.90;;;;;;5042501;28;25117;-59
2022/05/23 10:53:57;;;;;;;10.35;7.45;;;23.10;99.90;;;;;;5058254;28;25073;-61
2022/05/23 10:56:54;;;;;;;9.48;6.80;;;23.20;99.90;;;;;;5057594;28;25057;-61
2022/05/23 10:59:28;;;;;;;9.95;6.28;;;23.00;99.90;;;;;;5055768;28;25160;-60
2022/05/23 11:02:33;;;;;;;12.43;6.63;;;23.00;99.10;;;;;;5053942;28;25069;-59
2022/05/23 11:05:23;;;;;;;6.80;5.60;;;22.70;98.50;;;;;;5055930;28;25155;-60
2022/05/23 11:08:16;;;;;;;9.45;5.63;;;22.40;99.90;;;;;;5055266;28;25101;-59
2022/05/23 11:10:56;;;;;;;5.90;4.85;;;22.20;99.90;;;;;;5056851;28;25073;-60
2022/05/23 11:13:52;;;;;;;9.32;5.65;;;22.30;99.90;;;;;;5054903;28;25132;-60
2022/05/23 11:16:23;;;;;;;9.80;5.53;;;22.40;99.90;;;;;;5053420;28;25131;-60
2022/05/23 11:19:14;;;;;;;9.05;5.78;;;22.10;99.90;;;;;;5052282;28;25124;-61
2022/05/23 11:21:46;;;;;;;8.38;7.43;;;22.20;99.90;;;;;;5055608;28;25100;-60
2022/05/23 11:24:20;;;;;;;10.85;7.80;;;22.30;99.90;;;;;;5056969;28;25175;-60
2022/05/23 11:26:48;;;;;;;16.42;10.45;;;22.60;99.90;;;;;;5056279;28;25112;-60
2022/05/23 11:35:00;;;;;;;12.25;10.80;;;21.70;99.90;;;;;;5057339;28;25120;-60
2022/05/23 11:40:06;;;;;;;14.00;10.32;;;21.80;99.90;;;;;;5057966;28;25105;-61
2022/05/23 11:42:55;;;;;;;12.48;9.82;;;21.50;99.90;;;;;;5055502;28;25069;-60
2022/05/23 11:48:40;;;;;;;14.57;11.07;;;21.70;99.90;;;;;;5057926;28;25053;-60
2022/05/23 11:51:24;;;;;;;17.48;10.85;;;21.60;99.90;;;;;;5055617;28;25073;-61
2022/05/23 11:54:08;;;;;;;14.45;10.82;;;21.60;99.90;;;;;;5056177;28;25076;-60
2022/05/23 11:56:39;;;;;;;20.33;12.45;;;21.60;99.90;;;;;;5055929;28;25058;-61
2022/05/23 11:59:07;;;;;;;16.83;12.27;;;21.40;99.90;;;;;;5056978;28;25150;-60
2022/05/23 12:01:34;;;;;;;14.20;11.18;;;21.30;99.90;;;;;;5055932;28;25070;-60
2022/05/23 12:04:00;;;;;;;15.35;10.52;;;21.40;99.90;;;;;;5056284;28;25057;-61
2022/05/23 12:06:25;;;;;;;12.65;10.15;;;21.30;99.90;;;;;;5057523;28;25052;-61
2022/05/23 12:09:05;;;;;;;18.25;10.07;;;21.40;99.90;;;;;;5055204;28;25081;-60
2022/05/23 12:11:37;;;;;;;9.85;8.85;;;21.30;99.90;;;;;;5052745;28;25073;-60
2022/05/23 12:14:20;;;;;;;14.13;10.40;;;21.30;99.90;;;;;;5053407;28;25067;-61
2022/05/23 12:16:54;;;;;;;;;;;21.30;99.90;;;;;;5052970;28;25150;-59
2022/05/23 12:19:23;;;;;;;15.57;9.77;;;21.30;99.90;;;;;;5053618;28;25054;-60
2022/05/23 12:21:49;;;;;;;19.15;10.65;;;21.40;99.90;;;;;;5053075;28;25071;-61
2022/05/23 12:24:25;;;;;;;18.10;11.50;;;21.20;99.90;;;;;;5052459;28;25061;-59
2022/05/23 12:26:54;;;;;;;17.63;11.35;;;21.20;99.90;;;;;;5052941;28;25048;-60
2022/05/23 12:30:09;;;;;;;12.52;10.73;;;21.20;99.90;;;;;;5051690;28;25063;-61
2022/05/23 12:32:34;;;;;;;12.38;10.52;;;21.30;99.90;;;;;;5051032;28;25126;-59
2022/05/23 12:35:05;;;;;;;15.25;10.90;;;21.40;99.90;;;;;;5052613;28;25056;-61
2022/05/23 12:37:48;;;;;;;16.05;10.35;;;21.50;99.90;;;;;;5051849;28;25163;-60
2022/05/23 12:40:25;;;;;;;16.80;11.40;;;21.50;99.90;;;;;;5050872;28;25073;-60
2022/05/23 12:43:17;;;;;;;17.55;12.80;;;21.40;99.90;;;;;;5052891;28;25065;-60
2022/05/23 12:45:53;;;;;;;18.75;11.80;;;21.10;99.90;;;;;;5054831;28;25086;-60
2022/05/23 12:48:49;;;;;;;31.10;13.43;;;21.00;99.90;;;;;;5055409;28;25069;-59
2022/05/23 12:51:33;;;;;;;22.17;14.35;;;21.10;99.90;;;;;;5055880;28;25046;-60
2022/05/23 12:54:26;;;;;;;23.50;14.23;;;21.20;99.90;;;;;;5055205;28;25064;-60
2022/05/23 12:57:00;;;;;;;21.25;15.23;;;21.10;99.90;;;;;;5055308;28;25177;-60
2022/05/23 12:59:48;;;;;;;30.63;16.45;;;20.80;99.90;;;;;;5055188;28;25072;-60
2022/05/23 13:02:39;;;;;;;30.58;17.63;;;20.80;99.90;;;;;;5054910;28;25092;-60
2022/05/23 13:05:12;;;;;;;25.17;17.60;;;20.70;99.90;;;;;;5054808;28;25115;-60
2022/05/23 13:08:02;;;;;;;25.95;19.10;;;20.30;99.90;;;;;;5055214;28;25073;-60
2022/05/23 13:10:34;;;;;;;27.88;19.67;;;19.90;99.90;;;;;;5055585;28;25130;-60
2022/05/23 13:13:10;;;;;;;28.48;19.73;;;19.90;99.90;;;;;;5053796;28;25074;-60
2022/05/23 13:15:36;;;;;;;29.40;19.83;;;19.70;99.90;;;;;;5053900;28;25091;-61
2022/05/23 13:23:36;;;;;;;32.17;22.02;;;18.80;99.90;;;;;;5051198;28;25143;-61
2022/05/23 13:26:08;;;;;;;30.50;21.85;;;18.80;99.90;;;;;;5051957;28;25078;-60
2022/05/23 13:28:42;;;;;;;33.93;23.80;;;18.80;99.90;;;;;;5051873;28;25101;-61
2022/05/23 13:31:29;;;;;;;35.10;25.50;;;18.70;99.90;;;;;;5053973;28;25129;-62
2022/05/23 13:33:57;;;;;;;34.85;27.95;;;18.80;99.90;;;;;;5054005;28;25056;-61
2022/05/23 13:36:25;;;;;;;33.92;27.15;;;18.70;99.90;;;;;;5055785;28;25093;-62
2022/05/23 13:39:04;;;;;;;38.47;28.00;;;18.60;99.90;;;;;;5054387;28;25077;-61
2022/05/23 13:41:32;;;;;;;37.58;27.05;;;18.50;99.90;;;;;;5051386;28;25109;-61
2022/05/23 13:43:58;;;;;;;34.38;25.50;;;18.40;99.90;;;;;;5049996;28;25083;-62
2022/05/23 13:46:31;;;;;;;30.95;25.17;;;18.30;99.90;;;;;;5055811;28;25126;-60
2022/05/23 13:49:18;;;;;;;32.53;25.38;;;18.20;99.90;;;;;;5053202;28;25066;-61
2022/05/23 13:51:51;;;;;;;35.85;25.63;;;18.20;99.90;;;;;;5052794;28;25056;-60
2022/05/23 13:54:36;;;;;;;30.48;24.75;;;18.20;99.90;;;;;;5052515;28;25140;-61
2022/05/23 13:57:08;;;;;;;36.33;26.27;;;18.30;99.90;;;;;;5052391;28;25087;-61
2022/05/23 13:59:36;;;;;;;;;;;18.40;99.90;;;;;;5051734;28;25058;-61
2022/05/23 14:02:07;;;;;;;32.90;26.83;;;18.20;99.90;;;;;;5054453;28;25057;-60